Time;durP1;ratioP1;P1;durP2;ratioP2;P2;SDS_P1;SDS_P2;PMS_P1;PMS_P2;Temp;Humidity;BMP_temperature;BMP_pressure;BME280_temperature;BME280_humidity;BME280_pressure;Samples;Min_cycle;Max_cycle;Signal;HPM_P1;HPM_P2
2022/03/19 00:02:23;;;;;;;19.63;12.47;;;3.90;99.90;;;;;;5019799;28;20180;-82
2022/03/19 00:04:48;;;;;;;16.83;11.87;;;4.00;99.90;;;;;;5021442;28;20279;-83
2022/03/19 00:07:14;;;;;;;18.10;12.10;;;3.90;99.90;;;;;;5020721;28;20204;-83
2022/03/19 00:09:41;;;;;;;16.33;13.83;;;3.80;99.90;;;;;;5020007;28;20190;-83
2022/03/19 00:12:08;;;;;;;17.00;12.63;;;3.80;99.90;;;;;;5020094;28;20184;-83
2022/03/19 00:14:34;;;;;;;14.07;12.30;;;3.90;99.90;;;;;;5019548;28;20180;-83
2022/03/19 00:16:59;;;;;;;19.87;12.57;;;3.90;99.90;;;;;;5016931;28;20210;-82
2022/03/19 00:19:27;;;;;;;13.63;12.23;;;3.90;99.90;;;;;;5017489;28;20176;-83
2022/03/19 00:21:53;;;;;;;18.17;12.97;;;3.90;99.90;;;;;;5016659;28;20224;-83
2022/03/19 00:24:19;;;;;;;14.13;11.53;;;3.90;99.90;;;;;;5018385;28;20164;-84
2022/03/19 00:26:45;;;;;;;16.70;12.90;;;3.80;99.90;;;;;;5017489;28;20212;-85
2022/03/19 00:29:10;;;;;;;15.00;12.57;;;3.80;99.90;;;;;;5018271;28;20190;-85
2022/03/19 00:31:36;;;;;;;17.47;12.70;;;3.80;99.90;;;;;;5017399;28;20243;-85
2022/03/19 00:34:02;;;;;;;16.87;13.43;;;3.80;99.90;;;;;;5019084;28;20183;-85
2022/03/19 00:36:28;;;;;;;14.43;12.03;;;3.70;99.90;;;;;;5018346;28;20204;-85
2022/03/19 00:38:54;;;;;;;16.30;12.70;;;3.70;99.90;;;;;;5019487;28;20172;-86
2022/03/19 00:41:21;;;;;;;19.10;12.10;;;3.80;99.90;;;;;;5018098;28;20294;-85
2022/03/19 00:43:47;;;;;;;16.17;12.07;;;3.70;99.90;;;;;;5018473;28;20175;-85
2022/03/19 00:46:15;;;;;;;19.10;11.73;;;3.70;99.90;;;;;;5019024;28;20225;-85
2022/03/19 00:48:41;;;;;;;16.27;12.00;;;3.70;99.90;;;;;;5019228;28;20558;-81
2022/03/19 00:51:07;;;;;;;14.70;12.03;;;3.60;99.90;;;;;;5017913;28;20172;-82
2022/03/19 00:53:34;;;;;;;17.17;12.40;;;3.50;99.90;;;;;;5015847;28;20184;-82
2022/03/19 00:55:59;;;;;;;20.00;12.77;;;3.50;99.90;;;;;;5015710;28;20192;-82
2022/03/19 00:58:25;;;;;;;17.00;12.37;;;3.40;99.90;;;;;;5016780;28;20223;-82
2022/03/19 01:00:51;;;;;;;15.70;12.03;;;3.40;99.90;;;;;;5017842;28;20183;-82
2022/03/19 01:03:17;;;;;;;16.83;12.70;;;3.40;99.90;;;;;;5019458;28;20172;-81
2022/03/19 01:05:43;;;;;;;17.47;12.03;;;3.30;99.90;;;;;;5017672;28;20219;-82
2022/03/19 01:08:11;;;;;;;15.60;12.20;;;3.30;99.90;;;;;;5019270;28;20211;-83
2022/03/19 01:10:37;;;;;;;14.03;12.53;;;3.30;99.90;;;;;;5019538;28;20200;-82
2022/03/19 01:13:05;;;;;;;15.43;12.10;;;3.30;99.90;;;;;;5018502;28;20176;-82
2022/03/19 01:15:31;;;;;;;15.90;13.00;;;3.30;99.90;;;;;;5018735;28;20176;-82
2022/03/19 01:17:56;;;;;;;18.90;13.23;;;3.30;99.90;;;;;;5017874;28;20207;-82
2022/03/19 01:20:24;;;;;;;18.40;13.13;;;3.40;99.90;;;;;;5018703;28;20238;-82
2022/03/19 01:22:50;;;;;;;15.77;12.27;;;3.30;99.90;;;;;;5018920;28;20180;-82
2022/03/19 01:25:18;;;;;;;15.93;12.40;;;3.30;99.90;;;;;;5019572;28;20547;-81
2022/03/19 01:27:45;;;;;;;15.80;12.53;;;3.40;99.90;;;;;;5018902;28;20617;-82
2022/03/19 01:30:13;;;;;;;17.97;13.17;;;3.30;99.90;;;;;;5018691;28;20210;-82
2022/03/19 01:32:40;;;;;;;15.97;12.87;;;3.30;99.90;;;;;;5018582;28;20214;-82
2022/03/19 01:35:06;;;;;;;17.90;13.00;;;3.20;99.90;;;;;;5017996;28;20199;-82
2022/03/19 01:37:32;;;;;;;14.47;12.90;;;3.20;99.90;;;;;;5018500;28;20215;-82
2022/03/19 01:39:58;;;;;;;17.27;13.07;;;3.20;99.90;;;;;;5019756;28;20176;-82
2022/03/19 01:42:24;;;;;;;15.30;12.63;;;3.30;99.90;;;;;;5018411;28;20179;-82
2022/03/19 01:44:51;;;;;;;16.73;12.47;;;3.30;99.90;;;;;;5021864;28;20180;-82
2022/03/19 01:47:17;;;;;;;14.97;12.80;;;3.20;99.90;;;;;;5023662;28;20222;-82
2022/03/19 01:49:42;;;;;;;16.53;12.47;;;3.20;99.90;;;;;;5021989;28;20179;-82
2022/03/19 01:52:08;;;;;;;18.60;11.90;;;3.20;99.90;;;;;;5021459;28;20179;-82
2022/03/19 01:54:37;;;;;;;18.90;12.77;;;3.10;99.90;;;;;;5021907;28;20187;-83
2022/03/19 01:57:05;;;;;;;17.07;12.57;;;3.10;99.90;;;;;;5023096;28;20188;-81
2022/03/19 01:59:34;;;;;;;13.83;12.23;;;3.00;99.90;;;;;;5021498;28;20180;-82
2022/03/19 02:02:02;;;;;;;19.40;12.53;;;3.00;99.90;;;;;;5020073;28;20187;-82
2022/03/19 02:04:28;;;;;;;16.23;12.60;;;3.00;99.90;;;;;;5019007;28;20180;-83
2022/03/19 02:06:55;;;;;;;15.00;12.83;;;3.00;99.90;;;;;;5018287;28;20306;-84
2022/03/19 02:09:22;;;;;;;20.77;13.77;;;3.00;99.90;;;;;;5020259;28;20180;-84
2022/03/19 02:11:48;;;;;;;15.40;13.20;;;2.90;99.90;;;;;;5020004;28;20270;-84
2022/03/19 02:14:15;;;;;;;16.90;13.50;;;2.80;99.90;;;;;;5021076;28;20627;-83
2022/03/19 02:16:42;;;;;;;15.80;12.70;;;2.70;99.90;;;;;;5020821;28;20208;-83
2022/03/19 02:19:07;;;;;;;15.70;12.30;;;2.60;99.90;;;;;;5020444;28;20180;-82
2022/03/19 02:21:40;;;;;;;15.43;12.47;;;2.50;99.90;;;;;;5019650;28;20191;-82
2022/03/19 02:26:51;;;;;;;15.43;12.50;;;2.40;99.90;;;;;;5021155;28;20278;-82
2022/03/19 02:29:16;;;;;;;15.10;12.63;;;2.40;99.90;;;;;;5019530;28;20203;-82
2022/03/19 02:31:44;;;;;;;20.10;13.13;;;2.40;99.90;;;;;;5021317;28;20229;-82
2022/03/19 02:34:11;;;;;;;15.73;11.40;;;2.40;99.90;;;;;;5021913;28;20183;-85
2022/03/19 02:36:40;;;;;;;15.20;12.47;;;2.40;99.90;;;;;;5022040;28;20674;-85
2022/03/19 02:39:16;;;;;;;14.57;12.10;;;2.40;99.90;;;;;;5022385;28;20179;-85
2022/03/19 02:41:52;;;;;;;14.47;12.40;;;2.40;99.90;;;;;;5022615;28;20171;-85
2022/03/19 02:44:19;;;;;;;17.30;12.63;;;2.40;99.90;;;;;;5022482;28;20168;-85
2022/03/19 02:46:53;;;;;;;13.93;12.47;;;2.40;99.90;;;;;;5023231;28;20227;-85
2022/03/19 02:49:20;;;;;;;14.97;12.50;;;2.40;99.90;;;;;;5018307;28;20266;-89
2022/03/19 02:51:47;;;;;;;16.97;12.23;;;2.40;99.90;;;;;;5019415;28;20191;-88
2022/03/19 02:54:21;;;;;;;17.27;12.87;;;2.30;99.90;;;;;;5018985;28;20202;-88
2022/03/19 02:56:47;;;;;;;15.77;12.57;;;2.40;99.90;;;;;;5017971;28;20686;-89
2022/03/19 02:59:20;;;;;;;14.77;12.13;;;2.30;99.90;;;;;;5018122;28;20179;-89
2022/03/19 03:01:48;;;;;;;18.87;13.03;;;2.40;99.90;;;;;;5017789;28;20186;-88
2022/03/19 03:04:14;;;;;;;14.17;12.47;;;2.30;99.90;;;;;;5017318;28;20179;-89
2022/03/19 03:06:42;;;;;;;16.57;12.13;;;2.30;99.90;;;;;;5016517;28;20581;-88
2022/03/19 03:09:09;;;;;;;15.27;12.73;;;2.20;99.90;;;;;;5017977;28;20176;-89
2022/03/19 03:11:36;;;;;;;16.43;12.53;;;2.20;99.90;;;;;;5016623;28;20180;-89
2022/03/19 03:14:02;;;;;;;14.37;11.87;;;2.30;99.90;;;;;;5016768;28;20183;-89
2022/03/19 03:16:29;;;;;;;16.43;12.70;;;2.30;99.90;;;;;;5015646;28;20609;-88
2022/03/19 03:18:56;;;;;;;15.73;13.03;;;2.30;99.90;;;;;;5019441;28;20194;-81
2022/03/19 03:21:24;;;;;;;17.57;12.53;;;2.30;99.90;;;;;;5020417;28;20212;-82
2022/03/19 03:23:50;;;;;;;15.20;11.93;;;2.30;99.90;;;;;;5021357;28;20572;-82
2022/03/19 03:26:16;;;;;;;15.97;12.37;;;2.30;99.90;;;;;;5021508;28;20230;-82
2022/03/19 03:28:42;;;;;;;18.20;12.87;;;2.30;99.90;;;;;;5020481;28;20218;-82
2022/03/19 03:31:07;;;;;;;15.67;12.37;;;2.30;99.90;;;;;;5019730;28;20183;-82
2022/03/19 03:33:33;;;;;;;16.50;11.73;;;2.30;99.90;;;;;;5020717;28;20188;-82
2022/03/19 03:35:59;;;;;;;14.87;12.03;;;2.30;99.90;;;;;;5019900;28;20293;-82
2022/03/19 03:38:25;;;;;;;14.10;12.10;;;2.30;99.90;;;;;;5020257;28;20215;-83
2022/03/19 03:40:51;;;;;;;14.37;11.57;;;2.30;99.90;;;;;;5019690;28;20183;-83
2022/03/19 03:43:17;;;;;;;15.93;12.70;;;2.20;99.90;;;;;;5019420;28;20184;-82
2022/03/19 03:45:43;;;;;;;14.13;12.63;;;2.20;99.90;;;;;;5018761;28;20182;-82
2022/03/19 03:48:09;;;;;;;16.70;12.27;;;2.20;99.90;;;;;;5020437;28;20239;-82
2022/03/19 03:50:36;;;;;;;14.90;11.57;;;2.20;99.90;;;;;;5019274;28;20207;-82
2022/03/19 03:53:04;;;;;;;16.20;11.60;;;2.10;99.90;;;;;;5022119;28;20180;-82
2022/03/19 03:55:30;;;;;;;16.07;12.50;;;2.10;99.90;;;;;;5020138;28;20164;-83
2022/03/19 03:57:56;;;;;;;18.90;12.27;;;2.10;99.90;;;;;;5017277;28;20282;-82
2022/03/19 04:00:22;;;;;;;14.53;12.50;;;2.10;99.90;;;;;;5018203;28;20179;-82
2022/03/19 04:02:47;;;;;;;16.80;12.20;;;2.00;99.90;;;;;;5017166;28;20183;-82
2022/03/19 04:05:13;;;;;;;14.83;11.43;;;2.00;99.90;;;;;;5015867;28;20192;-81
2022/03/19 04:07:39;;;;;;;16.10;12.13;;;2.00;99.90;;;;;;5014860;28;20238;-81
2022/03/19 04:10:05;;;;;;;13.60;12.10;;;2.00;99.90;;;;;;5016192;28;20189;-82
2022/03/19 04:12:31;;;;;;;20.60;13.70;;;2.00;99.90;;;;;;5016085;28;20186;-82
2022/03/19 04:14:57;;;;;;;17.70;13.30;;;2.00;99.90;;;;;;5016388;28;20274;-82
2022/03/19 04:17:23;;;;;;;16.23;12.50;;;1.90;99.90;;;;;;5016930;28;20212;-82
2022/03/19 04:19:48;;;;;;;17.70;11.77;;;1.90;99.90;;;;;;5018669;28;20180;-82
2022/03/19 04:22:14;;;;;;;17.23;12.53;;;1.90;99.90;;;;;;5020621;28;20630;-82
2022/03/19 04:24:39;;;;;;;14.60;13.10;;;1.90;99.90;;;;;;5019207;28;20187;-82
2022/03/19 04:27:07;;;;;;;14.33;12.33;;;1.90;99.90;;;;;;5018686;28;20202;-82
2022/03/19 04:29:33;;;;;;;17.03;13.23;;;2.00;99.90;;;;;;5018313;28;20156;-83
2022/03/19 04:31:59;;;;;;;14.70;12.33;;;2.00;99.90;;;;;;5018837;28;20202;-83
2022/03/19 04:34:24;;;;;;;14.37;12.70;;;2.00;99.90;;;;;;5016335;28;20180;-83
2022/03/19 04:36:51;;;;;;;18.60;13.40;;;2.00;99.90;;;;;;5015011;28;20302;-83
2022/03/19 04:39:16;;;;;;;17.87;13.20;;;2.00;99.90;;;;;;5015963;28;20183;-83
2022/03/19 04:41:42;;;;;;;18.17;13.43;;;2.00;99.90;;;;;;5016257;28;20176;-83
2022/03/19 04:44:09;;;;;;;16.57;13.43;;;2.00;99.90;;;;;;5017886;28;20179;-82
2022/03/19 04:46:35;;;;;;;18.57;13.50;;;2.00;99.90;;;;;;5017526;28;20191;-82
2022/03/19 04:49:02;;;;;;;15.63;13.03;;;1.90;99.90;;;;;;5016938;28;20176;-82
2022/03/19 04:51:33;;;;;;;15.40;13.20;;;1.90;99.90;;;;;;5017295;28;20604;-82
2022/03/19 04:53:59;;;;;;;18.67;13.50;;;1.80;99.90;;;;;;5018495;28;20164;-82
2022/03/19 04:56:27;;;;;;;16.43;13.53;;;1.80;99.90;;;;;;5017313;28;20207;-82
2022/03/19 04:58:54;;;;;;;17.93;13.20;;;1.80;99.90;;;;;;5017619;28;20339;-82
2022/03/19 05:01:21;;;;;;;16.40;13.20;;;1.80;99.90;;;;;;5017942;28;20210;-82
2022/03/19 05:03:47;;;;;;;17.60;13.13;;;1.70;99.90;;;;;;5018188;28;20540;-82
2022/03/19 05:06:12;;;;;;;20.77;13.67;;;1.70;99.90;;;;;;5017648;28;20318;-82
2022/03/19 05:08:38;;;;;;;16.37;13.87;;;1.70;99.90;;;;;;5018689;28;20528;-83
2022/03/19 05:11:13;;;;;;;16.87;13.03;;;1.60;99.90;;;;;;5019108;28;20176;-83
2022/03/19 05:13:40;;;;;;;15.20;13.57;;;1.60;99.90;;;;;;5020037;28;20152;-83
2022/03/19 05:16:06;;;;;;;18.73;13.47;;;1.50;99.90;;;;;;5018115;28;20275;-82
2022/03/19 05:18:32;;;;;;;16.20;13.83;;;1.50;99.90;;;;;;5019319;28;20246;-82
2022/03/19 05:20:58;;;;;;;16.27;13.83;;;1.50;99.90;;;;;;5022658;28;20229;-83
2022/03/19 05:23:24;;;;;;;20.57;14.03;;;1.50;99.90;;;;;;5021944;28;20672;-83
2022/03/19 05:25:50;;;;;;;18.87;13.60;;;1.50;99.90;;;;;;5020881;28;20703;-83
2022/03/19 05:28:16;;;;;;;14.67;13.17;;;1.50;99.90;;;;;;5018605;28;20572;-83
2022/03/19 05:30:42;;;;;;;17.33;13.60;;;1.50;99.90;;;;;;5017306;28;20187;-82
2022/03/19 05:33:08;;;;;;;16.37;13.77;;;1.40;99.90;;;;;;5018453;28;20235;-82
2022/03/19 05:35:34;;;;;;;17.53;13.87;;;1.40;99.90;;;;;;5017168;28;20183;-82
2022/03/19 05:38:00;;;;;;;19.33;14.17;;;1.40;99.90;;;;;;5018172;28;20199;-82
2022/03/19 05:40:27;;;;;;;15.63;14.00;;;1.40;99.90;;;;;;5016772;28;20179;-82
2022/03/19 05:42:52;;;;;;;17.90;13.80;;;1.40;99.90;;;;;;5018029;28;20168;-82
2022/03/19 05:45:20;;;;;;;20.70;14.27;;;1.40;99.90;;;;;;5016723;28;20183;-82
2022/03/19 05:47:46;;;;;;;18.23;14.53;;;1.40;99.90;;;;;;5018781;28;20207;-82
2022/03/19 05:50:12;;;;;;;17.33;14.33;;;1.40;99.90;;;;;;5017327;28;20227;-82
2022/03/19 05:52:39;;;;;;;17.97;14.17;;;1.30;99.90;;;;;;5017177;28;20183;-82
2022/03/19 05:55:05;;;;;;;18.80;14.00;;;1.30;99.90;;;;;;5019097;28;20251;-82
2022/03/19 05:57:31;;;;;;;17.50;14.27;;;1.40;99.90;;;;;;5019070;28;20203;-82
2022/03/19 05:59:57;;;;;;;16.67;14.47;;;1.40;99.90;;;;;;5018460;28;20172;-82
2022/03/19 06:02:22;;;;;;;15.60;13.80;;;1.40;99.90;;;;;;5018782;28;20194;-83
2022/03/19 06:04:48;;;;;;;18.80;13.20;;;1.40;99.90;;;;;;5017962;28;20180;-82
2022/03/19 06:07:14;;;;;;;19.50;14.17;;;1.40;99.90;;;;;;5018682;28;20230;-82
2022/03/19 06:09:39;;;;;;;17.73;14.10;;;1.40;99.90;;;;;;5017173;28;20187;-82
2022/03/19 06:12:05;;;;;;;15.57;13.87;;;1.40;99.90;;;;;;5017614;28;20274;-81
2022/03/19 06:14:31;;;;;;;15.97;14.27;;;1.40;99.90;;;;;;5018628;28;20253;-81
2022/03/19 06:16:57;;;;;;;15.23;12.90;;;1.40;99.90;;;;;;5016606;28;20298;-81
2022/03/19 06:19:23;;;;;;;15.63;13.33;;;1.50;99.90;;;;;;5015907;28;20523;-81
2022/03/19 06:21:48;;;;;;;16.30;13.23;;;1.50;99.90;;;;;;5016730;28;20311;-82
2022/03/19 06:24:14;;;;;;;17.37;13.80;;;1.60;99.90;;;;;;5015948;28;20278;-83
2022/03/19 06:26:40;;;;;;;17.37;13.40;;;1.70;99.90;;;;;;5016160;28;20206;-82
2022/03/19 06:29:06;;;;;;;17.07;14.97;;;1.90;99.90;;;;;;5015227;28;20187;-82
2022/03/19 06:31:32;;;;;;;17.00;13.33;;;2.00;99.90;;;;;;5015974;28;20586;-82
2022/03/19 06:33:58;;;;;;;20.60;15.27;;;2.10;99.90;;;;;;5016131;28;20186;-82
2022/03/19 06:39:07;;;;;;;20.50;15.87;;;2.50;99.90;;;;;;5017958;28;20198;-82
2022/03/19 06:41:34;;;;;;;23.27;16.00;;;2.70;99.90;;;;;;5016065;28;20176;-83
2022/03/19 06:43:59;;;;;;;23.50;16.50;;;2.90;99.90;;;;;;5016289;28;20175;-83
2022/03/19 06:46:26;;;;;;;20.00;16.63;;;3.10;99.90;;;;;;5016135;28;20254;-83
2022/03/19 06:48:52;;;;;;;25.83;16.90;;;3.30;99.90;;;;;;5016829;28;20180;-83
2022/03/19 06:51:18;;;;;;;24.37;17.03;;;3.50;99.90;;;;;;5017547;28;20259;-83
2022/03/19 06:53:48;;;;;;;20.73;15.83;;;3.60;99.90;;;;;;5016658;28;20176;-83
2022/03/19 06:56:16;;;;;;;21.47;15.77;;;3.80;99.90;;;;;;5016064;28;20693;-82
2022/03/19 06:58:42;;;;;;;21.37;16.07;;;4.00;99.90;;;;;;5015902;28;20658;-82
2022/03/19 07:01:15;;;;;;;25.80;16.87;;;4.10;99.90;;;;;;5016008;28;20172;-82
2022/03/19 07:03:47;;;;;;;20.27;16.60;;;4.40;99.90;;;;;;5015834;28;20172;-82
2022/03/19 07:06:15;;;;;;;26.13;17.33;;;4.60;99.90;;;;;;5016051;28;20235;-85
2022/03/19 07:08:41;;;;;;;22.80;16.13;;;4.80;99.90;;;;;;5016155;28;20180;-80
2022/03/19 07:11:07;;;;;;;22.57;15.93;;;5.00;99.90;;;;;;5015575;28;20209;-82
2022/03/19 07:13:33;;;;;;;24.90;15.77;;;5.20;99.90;;;;;;5015393;28;20261;-82
2022/03/19 07:15:59;;;;;;;25.00;15.60;;;5.30;99.90;;;;;;5015169;28;20219;-82
2022/03/19 07:18:25;;;;;;;23.70;14.27;;;5.50;99.90;;;;;;5016414;28;20195;-82
2022/03/19 07:20:51;;;;;;;19.97;14.13;;;5.70;99.90;;;;;;5016633;28;20182;-82
2022/03/19 07:23:17;;;;;;;20.67;14.93;;;5.80;99.90;;;;;;5015212;28;20176;-82
2022/03/19 07:25:45;;;;;;;20.50;14.30;;;5.90;99.90;;;;;;5015479;28;20171;-83
2022/03/19 07:28:14;;;;;;;21.03;14.50;;;6.00;99.90;;;;;;5015044;28;20708;-82
2022/03/19 07:30:41;;;;;;;20.63;14.00;;;6.10;99.90;;;;;;5015292;28;20642;-82
2022/03/19 07:33:08;;;;;;;16.90;13.33;;;6.30;99.90;;;;;;5015374;28;20184;-82
2022/03/19 07:35:34;;;;;;;18.80;12.97;;;6.40;99.90;;;;;;5015103;28;20176;-82
2022/03/19 07:38:02;;;;;;;20.70;12.83;;;6.50;99.90;;;;;;5015096;28;20208;-82
2022/03/19 07:43:14;;;;;;;20.43;12.63;;;6.70;99.90;;;;;;5016839;28;20298;-83
2022/03/19 07:45:41;;;;;;;17.10;12.73;;;7.00;99.90;;;;;;5015170;28;20207;-83
2022/03/19 07:48:08;;;;;;;17.10;12.00;;;7.00;99.90;;;;;;5015039;28;20693;-83
2022/03/19 07:50:34;;;;;;;13.87;11.47;;;7.20;99.90;;;;;;5015047;28;20180;-83
2022/03/19 07:53:00;;;;;;;20.57;12.03;;;7.20;99.90;;;;;;5015345;28;20186;-83
2022/03/19 07:55:26;;;;;;;17.03;11.17;;;7.30;99.90;;;;;;5017754;28;20188;-84
2022/03/19 07:57:52;;;;;;;18.93;11.90;;;7.50;99.90;;;;;;5016740;28;20269;-84
2022/03/19 08:00:19;;;;;;;20.00;11.90;;;7.60;99.90;;;;;;5017658;28;20588;-84
2022/03/19 08:02:45;;;;;;;14.97;10.47;;;7.60;99.90;;;;;;5015264;28;20638;-84
2022/03/19 08:05:12;;;;;;;17.67;11.97;;;7.70;99.90;;;;;;5015352;28;20627;-84
2022/03/19 08:07:38;;;;;;;15.13;10.80;;;7.80;99.90;;;;;;5013945;28;20628;-84
2022/03/19 08:10:08;;;;;;;16.17;11.43;;;7.90;99.90;;;;;;5015450;28;20226;-82
2022/03/19 08:12:35;;;;;;;19.80;11.00;;;8.00;99.90;;;;;;5014700;28;20733;-83
2022/03/19 08:15:03;;;;;;;17.57;11.07;;;8.20;99.90;;;;;;5014359;28;20194;-83
2022/03/19 08:17:29;;;;;;;18.13;11.10;;;8.30;99.90;;;;;;5015686;28;20215;-80
2022/03/19 08:19:59;;;;;;;15.83;10.23;;;8.40;99.90;;;;;;4999783;28;20176;-80
2022/03/19 08:22:28;;;;;;;16.40;10.33;;;8.60;99.90;;;;;;5018624;28;20266;-81
2022/03/19 08:24:53;;;;;;;14.40;9.47;;;8.80;99.90;;;;;;5016127;28;20175;-80
2022/03/19 08:27:22;;;;;;;14.07;9.80;;;9.80;99.90;;;;;;4999953;28;20227;-81
2022/03/19 08:29:48;;;;;;;15.87;8.50;;;11.50;99.90;;;;;;5004828;28;20191;-83
2022/03/19 08:32:13;;;;;;;11.13;7.78;;;13.00;99.90;;;;;;5005848;28;20179;-83
2022/03/19 08:34:39;;;;;;;16.23;8.90;;;14.60;99.90;;;;;;5007414;28;20190;-83
2022/03/19 08:37:05;;;;;;;10.70;7.35;;;15.70;99.90;;;;;;5001607;28;20681;-83
2022/03/19 08:42:16;;;;;;;13.43;7.10;;;17.20;99.90;;;;;;5019639;28;20171;-83
2022/03/19 08:44:54;;;;;;;15.57;7.45;;;17.70;99.90;;;;;;5019144;28;20258;-85
2022/03/19 08:47:30;;;;;;;9.00;6.80;;;18.10;99.90;;;;;;5019002;28;20274;-86
2022/03/19 08:50:00;;;;;;;13.45;6.78;;;18.10;99.90;;;;;;5001917;28;20627;-86
2022/03/19 08:52:29;;;;;;;11.68;6.70;;;17.70;99.90;;;;;;5005398;28;20262;-83
2022/03/19 08:54:55;;;;;;;10.63;6.65;;;17.60;99.90;;;;;;5012380;28;20271;-83
2022/03/19 08:57:21;;;;;;;10.48;6.75;;;17.90;99.90;;;;;;5002611;28;20207;-83
2022/03/19 09:00:13;;;;;;;12.70;6.53;;;17.80;99.90;;;;;;5003925;28;20310;-83
2022/03/19 09:03:08;;;;;;;8.85;6.05;;;17.70;99.90;;;;;;5005405;28;20196;-83
2022/03/19 09:05:45;;;;;;;14.10;6.57;;;17.80;99.90;;;;;;5001796;28;20211;-83
2022/03/19 09:08:15;;;;;;;13.23;6.63;;;18.00;99.90;;;;;;5020128;28;20156;-83
2022/03/19 09:10:43;;;;;;;15.32;6.55;;;17.80;99.90;;;;;;5002051;28;20267;-83
2022/03/19 09:13:16;;;;;;;10.60;6.05;;;17.50;99.90;;;;;;5018867;28;20177;-83
2022/03/19 09:15:42;;;;;;;9.77;6.03;;;17.70;99.90;;;;;;5018658;28;20176;-83
2022/03/19 09:18:08;;;;;;;12.48;7.00;;;17.40;99.90;;;;;;5019267;28;20245;-83
2022/03/19 09:20:34;;;;;;;8.98;6.40;;;17.10;99.90;;;;;;5002064;28;20180;-83
2022/03/19 09:23:03;;;;;;;12.07;6.80;;;16.60;99.90;;;;;;5001774;28;20186;-83
2022/03/19 09:25:29;;;;;;;11.73;6.72;;;16.10;99.90;;;;;;5021052;28;20186;-79
2022/03/19 09:27:55;;;;;;;11.10;7.53;;;15.60;99.90;;;;;;5009184;28;20206;-84
2022/03/19 09:30:21;;;;;;;11.35;6.95;;;15.10;99.90;;;;;;5008800;28;20211;-83
2022/03/19 09:32:46;;;;;;;12.82;7.55;;;14.80;99.90;;;;;;5022341;28;20303;-82
2022/03/19 09:35:12;;;;;;;11.25;7.35;;;14.30;99.90;;;;;;5019017;28;20549;-82
2022/03/19 09:37:38;;;;;;;10.95;6.80;;;14.00;99.90;;;;;;5000432;28;20244;-82
2022/03/19 09:40:04;;;;;;;13.63;7.75;;;13.70;99.90;;;;;;5017583;28;20723;-82
2022/03/19 09:42:32;;;;;;;9.77;7.10;;;13.30;99.90;;;;;;5001135;28;20650;-81
2022/03/19 09:44:58;;;;;;;16.60;7.95;;;12.90;99.90;;;;;;5018469;28;20168;-81
2022/03/19 09:47:26;;;;;;;11.57;6.80;;;12.40;99.90;;;;;;5017407;28;20196;-81
2022/03/19 09:49:52;;;;;;;9.25;7.68;;;12.10;99.90;;;;;;5001128;28;20274;-81
2022/03/19 09:52:22;;;;;;;11.27;6.93;;;11.90;99.90;;;;;;5017867;28;20184;-81
2022/03/19 09:54:48;;;;;;;14.23;7.25;;;11.70;99.90;;;;;;5001511;28;20183;-81
2022/03/19 09:57:13;;;;;;;10.75;6.95;;;11.70;99.90;;;;;;5019675;28;20221;-82
2022/03/19 09:59:39;;;;;;;9.57;7.00;;;11.60;99.90;;;;;;5002998;28;20525;-82
2022/03/19 10:02:11;;;;;;;10.60;7.50;;;11.70;99.90;;;;;;5002548;28;20179;-82
2022/03/19 10:04:40;;;;;;;9.40;6.77;;;11.80;99.90;;;;;;5002385;28;20183;-82
2022/03/19 10:09:52;;;;;;;10.07;7.00;;;11.80;99.90;;;;;;5020780;28;20267;-82
2022/03/19 10:12:22;;;;;;;8.80;6.30;;;11.70;99.90;;;;;;5002357;28;20183;-82
2022/03/19 10:14:53;;;;;;;9.17;6.60;;;11.60;99.90;;;;;;5001673;28;20263;-82
2022/03/19 10:17:36;;;;;;;10.00;6.17;;;11.60;99.90;;;;;;5001121;28;20689;-82
2022/03/19 10:20:10;;;;;;;12.00;5.60;;;11.60;99.90;;;;;;5001813;28;20191;-82
2022/03/19 10:22:42;;;;;;;10.97;5.77;;;11.70;99.90;;;;;;5001924;28;20176;-82
2022/03/19 10:25:10;;;;;;;9.83;5.00;;;11.80;99.90;;;;;;5001868;28;20176;-82
2022/03/19 10:27:41;;;;;;;8.03;5.40;;;11.80;99.90;;;;;;5001216;28;20219;-82
2022/03/19 10:30:21;;;;;;;8.67;5.60;;;11.80;99.90;;;;;;5018948;28;20171;-82
2022/03/19 10:32:51;;;;;;;5.73;4.90;;;11.90;99.90;;;;;;5018938;28;20194;-82
2022/03/19 10:35:26;;;;;;;8.27;5.03;;;11.90;99.90;;;;;;5001204;28;20184;-82
2022/03/19 10:37:52;;;;;;;5.20;4.20;;;12.00;99.90;;;;;;5001088;28;20214;-82
2022/03/19 10:40:19;;;;;;;6.97;4.60;;;11.90;99.90;;;;;;5017781;28;20183;-82
2022/03/19 10:42:45;;;;;;;8.03;4.10;;;11.90;99.90;;;;;;5001728;28;20180;-82
2022/03/19 10:45:18;;;;;;;4.97;4.00;;;11.90;99.90;;;;;;5001387;28;20275;-82
2022/03/19 10:47:46;;;;;;;5.07;3.97;;;12.00;99.90;;;;;;5000916;28;20204;-82
2022/03/19 10:50:20;;;;;;;9.63;4.37;;;12.10;99.90;;;;;;5001123;28;20219;-82
2022/03/19 10:52:48;;;;;;;9.03;4.73;;;12.20;99.90;;;;;;5017466;28;20175;-82
2022/03/19 10:55:15;;;;;;;7.23;4.17;;;12.30;99.90;;;;;;5000795;28;20188;-82
2022/03/19 10:57:44;;;;;;;5.83;3.97;;;12.40;99.90;;;;;;5019068;28;20213;-81
2022/03/19 11:00:10;;;;;;;5.60;4.40;;;12.50;99.90;;;;;;5018716;28;20176;-81
2022/03/19 11:02:43;;;;;;;4.50;3.80;;;12.70;99.90;;;;;;5000991;28;20184;-81
2022/03/19 11:05:11;;;;;;;8.23;4.10;;;12.80;99.90;;;;;;5018683;28;20168;-81
2022/03/19 11:07:39;;;;;;;8.07;3.90;;;12.90;99.90;;;;;;5000853;28;20222;-82
2022/03/19 11:10:06;;;;;;;4.50;4.00;;;12.90;99.90;;;;;;5000666;28;20190;-82
2022/03/19 11:12:33;;;;;;;5.83;3.90;;;12.90;99.90;;;;;;5000884;28;20187;-82
2022/03/19 11:15:04;;;;;;;5.18;3.88;;;13.00;99.90;;;;;;5000598;28;20184;-82
2022/03/19 11:17:32;;;;;;;10.38;4.28;;;13.10;99.90;;;;;;5000979;28;20208;-82
2022/03/19 11:20:00;;;;;;;5.60;4.00;;;13.20;99.90;;;;;;5000716;28;20180;-82
2022/03/19 11:22:30;;;;;;;4.63;3.88;;;13.20;99.90;;;;;;5001686;28;20184;-82
2022/03/19 11:25:06;;;;;;;4.80;3.80;;;13.50;99.90;;;;;;5000540;28;20665;-82
2022/03/19 11:27:36;;;;;;;6.78;4.18;;;13.60;99.90;;;;;;5000741;28;20704;-82
2022/03/19 11:30:04;;;;;;;4.13;3.70;;;13.60;99.90;;;;;;5005492;28;20191;-82
2022/03/19 11:32:31;;;;;;;6.00;3.75;;;13.70;99.90;;;;;;5006832;28;20183;-82
2022/03/19 11:34:59;;;;;;;4.80;3.70;;;13.70;99.90;;;;;;5023450;28;20176;-82
2022/03/19 11:37:46;;;;;;;5.80;3.72;;;13.70;99.90;;;;;;5022859;28;20204;-82
2022/03/19 11:40:12;;;;;;;5.00;3.42;;;13.70;99.90;;;;;;5003198;28;20203;-82
2022/03/19 11:42:56;;;;;;;6.82;3.65;;;13.90;99.90;;;;;;5003717;28;20183;-81
2022/03/19 11:45:22;;;;;;;3.97;3.40;;;13.80;99.90;;;;;;5003534;28;20172;-81
2022/03/19 11:47:48;;;;;;;3.95;3.05;;;14.00;99.90;;;;;;5002908;28;20203;-81
2022/03/19 11:50:23;;;;;;;3.85;3.10;;;14.10;99.90;;;;;;5002686;28;20176;-81
2022/03/19 11:52:55;;;;;;;3.92;3.25;;;14.30;99.90;;;;;;5002589;28;20567;-81
2022/03/19 11:55:24;;;;;;;5.90;3.58;;;14.40;99.90;;;;;;5002421;28;20708;-81
2022/03/19 11:57:55;;;;;;;6.20;3.42;;;14.60;99.90;;;;;;5002313;28;20204;-81
2022/03/19 12:00:25;;;;;;;4.97;3.60;;;14.80;99.90;;;;;;5027122;28;20148;-81
2022/03/19 12:03:06;;;;;;;4.90;3.42;;;14.80;99.90;;;;;;5026896;28;20205;-81
2022/03/19 12:05:34;;;;;;;4.45;3.40;;;14.70;99.90;;;;;;5003891;28;20245;-81
2022/03/19 12:08:14;;;;;;;7.45;4.22;;;14.70;99.90;;;;;;5003372;28;20673;-82
2022/03/19 12:11:01;;;;;;;6.20;3.70;;;14.90;99.90;;;;;;5000143;28;20179;-82
2022/03/19 12:13:26;;;;;;;4.03;3.50;;;14.80;99.90;;;;;;4999202;28;20184;-82
2022/03/19 12:15:53;;;;;;;5.15;3.53;;;15.10;99.90;;;;;;4998162;28;20270;-82
2022/03/19 12:18:34;;;;;;;3.40;3.10;;;15.00;99.90;;;;;;4998656;28;20199;-82
2022/03/19 12:21:02;;;;;;;4.40;3.80;;;15.30;99.90;;;;;;4998691;28;20216;-82
2022/03/19 12:23:38;;;;;;;4.53;2.92;;;15.50;99.90;;;;;;5016077;28;20649;-82
2022/03/19 12:26:05;;;;;;;3.50;3.10;;;15.60;99.90;;;;;;5014813;28;20199;-82
2022/03/19 12:28:32;;;;;;;6.60;3.53;;;15.70;99.90;;;;;;4997993;28;20183;-82
2022/03/19 12:31:14;;;;;;;6.78;3.30;;;15.70;99.90;;;;;;5015051;28;20641;-82
2022/03/19 12:33:40;;;;;;;4.43;3.38;;;15.80;99.90;;;;;;4998724;28;20175;-82
2022/03/19 12:36:18;;;;;;;4.28;3.20;;;15.80;99.90;;;;;;4998636;28;20207;-82
2022/03/19 12:38:45;;;;;;;3.85;3.20;;;16.00;99.90;;;;;;4999409;28;20677;-82
2022/03/19 12:41:24;;;;;;;2.97;2.78;;;15.90;99.90;;;;;;5017236;28;20250;-82
2022/03/19 12:43:51;;;;;;;5.10;3.50;;;15.80;99.90;;;;;;4999295;28;20171;-82
2022/03/19 12:46:24;;;;;;;5.15;3.55;;;16.00;99.90;;;;;;4999200;28;20550;-82
2022/03/19 12:48:51;;;;;;;4.97;3.38;;;16.50;99.90;;;;;;5016689;28;20665;-82
2022/03/19 12:51:26;;;;;;;4.18;3.10;;;16.40;99.90;;;;;;4999113;28;20184;-82
2022/03/19 12:53:52;;;;;;;4.95;3.42;;;16.60;99.90;;;;;;5006477;28;20183;-82
2022/03/19 12:56:23;;;;;;;4.70;3.00;;;16.70;99.90;;;;;;5005049;28;20188;-82